Skip Navigation Links
NOAA logo - Click to go to the NOAA homepage
NOAA's National Weather Service
Alaska Aviation Weather Unit
  NWS logo - Click to go to the NWS homepage
Left Navbar Graphic     21 AKDT = 05 GMT

   
NOAA is celebrating 200 years of science, service, and stewardship. Visit the NOAA 200th celebration Web site to learn more.
USA.gov is the U.S. Government's official Web portal to all Federal, state and local government Web resources and services.
Facebook
NWS on Facebook

Important Change Regarding the AAWU Web Presence

 

Over the last several months, the AAWU has been working to navigate its webpages to a nationally supported server. Security, as well as other needs, have necessitated the change.  In the process, we have made an effort to enhance the functionality of our website, as well as some of our products. As of June 27, 2017, aawu.arh.noaa.gov will be discontinued. The new AAWU web address is weather.gov/aawu. It is now live and will run in-parallel with the old site until it is discontinued. Please send any feedback or questions regarding the new webpages to nws.ar.aawu.webauthors@noaa.gov.  Thank you for your patience during this time of transition.
AAWU Home :: Display TAF Add Bookmark
TAF PATA 250252Z 2503/2524 29012KT P6SM VCTS SCT060CB
     FM250600 30008KT P6SM VCSH BKN040=

METAR PATA 242352Z 32011KT 10SM -RA FEW070 BKN090 BKN170 23/07 A3008 RMK AO2 RAB2259 SLP189 P0001 60001 T02280072 10233 20156 57014= METAR PATA 250052Z 29007KT 200V330 10SM SCT070 BKN180 22/08 A3007 RMK AO2 RAE16 SLP185 P0000 T02220078= METAR PATA 250152Z 30014KT 10SM SCT070 BKN180 23/08 A3007 RMK AO2 SLP183 T02280078= METAR PATA 250252Z VRB04KT 9SM SCT080 BKN180 22/07 A3005 RMK AO2 SLP179 60000 T02220067 58010= METAR PATA 250352Z 32008KT 10SM FEW080 BKN180 21/07 A3004 RMK AO2 SLP174 T02110067= METAR PATA 250452Z 33012G18KT 10SM FEW100 BKN180 20/07 A3004 RMK AO2 SLP173 T02000067=
 Alaska TAF Map

NOAA's National Weather Service
Alaska Aviation Weather Unit
6930 Sand Lake Road
Anchorage, AK 99502-1845
Disclaimer
Credits
Glossary
Privacy Policy
About Us
Career Opportunities
Contact AAWU Internet Services Site last modified: April, 17th 2012